Time;durP1;ratioP1;P1;durP2;ratioP2;P2;SDS_P1;SDS_P2;PMS_P1;PMS_P2;Temp;Humidity;BMP_temperature;BMP_pressure;BME280_temperature;BME280_humidity;BME280_pressure;Samples;Min_cycle;Max_cycle;Signal;HPM_P1;HPM_P2
2022/03/31 00:00:22;;;;;;;1.80;1.00;;;;;;;18.49;57.24;96630.88;2075190;28;20494;-52
2022/03/31 00:01:24;;;;;;;0.70;0.70;;;;;;;18.51;57.01;96627.94;2077659;28;20768;-52
2022/03/31 00:02:25;;;;;;;1.05;0.85;;;;;;;18.51;57.10;96623.38;2079356;28;20056;-50
2022/03/31 00:03:27;;;;;;;;;;;;;;;18.40;57.36;96613.59;2081424;28;20451;-51
2022/03/31 00:04:28;;;;;;;1.83;0.93;;;;;;;18.45;57.46;96620.91;2082583;28;19920;-51
2022/03/31 00:05:30;;;;;;;1.80;0.90;;;;;;;18.47;57.36;96613.38;2081938;28;20107;-52
2022/03/31 00:06:32;;;;;;;1.00;0.90;;;;;;;18.47;57.30;96610.72;2081024;28;20351;-52
2022/03/31 00:07:34;;;;;;;1.27;0.77;;;;;;;18.47;57.23;96611.53;2082345;28;20137;-49
2022/03/31 00:08:37;;;;;;;1.17;0.90;;;;;;;18.48;57.12;96610.47;2082322;28;20040;-52
2022/03/31 00:09:38;;;;;;;0.70;0.55;;;;;;;18.48;57.25;96602.41;2077201;28;20053;-50
2022/03/31 00:10:41;;;;;;;;;;;;;;;18.37;57.53;96597.19;2081825;28;20087;-50
2022/03/31 00:11:42;;;;;;;0.57;0.57;;;;;;;18.39;57.49;96598.56;2082056;28;19924;-49
2022/03/31 00:12:44;;;;;;;;;;;;;;;18.31;57.59;96607.06;2083487;28;20098;-54
2022/03/31 00:13:47;;;;;;;;;;;;;;;18.25;57.77;96600.81;2082593;28;19925;-55
2022/03/31 00:14:48;;;;;;;0.50;0.50;;;;;;;18.34;57.60;96601.19;2075345;28;20054;-52
2022/03/31 00:15:50;;;;;;;1.45;0.90;;;;;;;18.37;57.48;96600.69;2079328;28;20057;-50
2022/03/31 00:16:51;;;;;;;0.77;0.70;;;;;;;18.41;57.45;96593.72;2082838;28;20057;-50
2022/03/31 00:17:53;;;;;;;;;;;;;;;18.32;57.59;96592.56;2081497;28;20084;-52
2022/03/31 00:18:55;;;;;;;1.75;0.90;;;;;;;18.36;57.52;96598.22;2081383;28;19921;-50
2022/03/31 00:19:56;;;;;;;0.90;0.70;;;;;;;18.39;57.47;96593.19;2083266;28;20060;-51
2022/03/31 00:20:57;;;;;;;;;;;;;;;18.28;57.68;96591.47;2080853;28;20059;-51
2022/03/31 00:21:59;;;;;;;;;;;;;;;18.24;57.66;96596.50;2083961;28;20070;-53
2022/03/31 00:23:01;;;;;;;0.80;0.80;;;;;;;18.29;57.52;96587.72;2082059;28;19929;-50
2022/03/31 00:24:03;;;;;;;1.92;1.25;;;;;;;18.36;57.45;96593.69;2080301;28;20049;-51
2022/03/31 00:25:04;;;;;;;;;;;;;;;18.28;57.68;96586.09;2083964;28;20062;-53
2022/03/31 00:26:05;;;;;;;1.23;0.60;;;;;;;18.34;57.50;96589.66;2079918;28;19977;-51
2022/03/31 00:27:07;;;;;;;;;;;;;;;18.25;57.80;96589.28;2083251;28;20060;-50
2022/03/31 00:28:08;;;;;;;1.15;0.85;;;;;;;18.29;57.73;96585.81;2082047;28;19921;-52
2022/03/31 00:29:10;;;;;;;1.33;0.73;;;;;;;18.34;57.37;96584.28;2083166;28;20095;-51
2022/03/31 00:30:12;;;;;;;0.65;0.63;;;;;;;18.37;57.44;96576.53;2084307;28;20049;-50
2022/03/31 00:31:14;;;;;;;0.75;0.70;;;;;;;18.38;57.31;96577.34;2079499;28;20053;-53
2022/03/31 00:32:15;;;;;;;0.80;0.77;;;;;;;18.38;57.25;96578.13;2077655;28;20106;-53
2022/03/31 00:33:17;;;;;;;;;;;;;;;18.27;57.59;96568.34;2081293;28;20057;-50
2022/03/31 00:34:17;;;;;;;2.33;0.82;;;;;;;18.29;57.54;96566.25;2081260;28;19921;-53
2022/03/31 00:35:19;;;;;;;;;;;;;;;18.22;57.75;96569.13;2084197;28;20140;-49
2022/03/31 00:36:20;;;;;;;1.20;0.73;;;;;;;18.28;57.49;96564.63;2076245;28;20018;-52
2022/03/31 00:37:22;;;;;;;;;;;;;;;18.20;57.78;96562.38;2080143;28;20057;-53
2022/03/31 00:38:24;;;;;;;0.88;0.70;;;;;;;18.25;57.49;96562.44;2082030;28;19964;-54
2022/03/31 00:39:34;;;;;;;1.00;0.85;;;;;;;18.32;57.38;96560.38;2080080;28;20458;-52
2022/03/31 00:40:36;;;;;;;0.73;0.70;;;;;;;18.31;57.48;96564.13;2082753;28;20110;-50
2022/03/31 00:41:38;;;;;;;0.82;0.60;;;;;;;18.34;57.31;96558.25;2080640;28;20044;-49
2022/03/31 00:42:42;;;;;;;1.15;0.40;;;;;;;18.35;57.13;96557.16;2080608;28;20801;-49
2022/03/31 00:43:43;;;;;;;0.73;0.73;;;;;;;18.33;57.13;96551.28;2082397;28;20057;-51
2022/03/31 00:44:45;;;;;;;;;;;;;;;18.23;57.63;96553.84;2080634;28;20060;-52
2022/03/31 00:45:50;;;;;;;1.55;0.88;;;;;;;18.26;57.37;96546.09;2083333;28;20011;-50
2022/03/31 00:46:54;;;;;;;2.78;1.00;;;;;;;18.28;57.21;96552.00;2079204;28;20084;-53
2022/03/31 00:47:57;;;;;;;1.42;0.95;;;;;;;18.30;57.36;96543.69;2082454;28;20048;-51
2022/03/31 00:48:59;;;;;;;0.45;0.43;;;;;;;18.30;57.24;96546.38;2081773;28;20378;-50
2022/03/31 00:50:01;;;;;;;0.95;0.50;;;;;;;18.32;57.24;96546.94;2079490;28;20064;-49
2022/03/31 00:51:02;;;;;;;0.70;0.70;;;;;;;18.32;57.23;96533.53;2082088;28;20057;-50
2022/03/31 00:52:03;;;;;;;;;;;;;;;18.21;57.40;96532.59;2081003;28;20052;-54
2022/03/31 00:53:07;;;;;;;0.85;0.60;;;;;;;18.25;57.49;96524.88;2081031;28;19935;-52
2022/03/31 00:54:09;;;;;;;1.33;0.88;;;;;;;18.27;57.36;96530.78;2080774;28;20049;-52
2022/03/31 00:55:12;;;;;;;1.38;1.05;;;;;;;18.30;57.22;96532.97;2079866;28;20045;-55
2022/03/31 00:56:16;;;;;;;1.27;1.17;;;;;;;18.30;57.09;96532.97;2081918;28;20110;-50
2022/03/31 00:57:18;;;;;;;0.80;0.73;;;;;;;18.29;57.27;96529.47;2074151;28;20055;-50
2022/03/31 00:58:19;;;;;;;1.75;0.47;;;;;;;18.29;57.23;96524.09;2075710;28;20073;-51
2022/03/31 00:59:21;;;;;;;;;;;;;;;18.18;57.38;96527.75;2080374;28;20095;-50
2022/03/31 01:00:22;;;;;;;1.77;0.70;;;;;;;18.23;57.62;96525.13;2079642;28;19921;-49
2022/03/31 01:01:24;;;;;;;1.60;1.02;;;;;;;18.26;57.23;96521.13;2081575;28;21047;-50
2022/03/31 01:02:30;;;;;;;0.85;0.52;;;;;;;18.27;57.25;96520.84;2081459;28;20045;-50
2022/03/31 01:03:32;;;;;;;1.80;0.95;;;;;;;18.27;57.08;96520.06;2081593;28;20404;-52
2022/03/31 01:04:34;;;;;;;0.93;0.60;;;;;;;18.28;57.06;96519.00;2080863;28;20055;-50
2022/03/31 01:05:39;;;;;;;0.93;0.60;;;;;;;18.27;57.18;96512.00;2082945;28;20671;-52
2022/03/31 01:06:40;;;;;;;0.50;0.47;;;;;;;18.27;57.29;96517.38;2078056;28;20053;-50
2022/03/31 01:07:41;;;;;;;;;;;;;;;18.16;57.27;96515.63;2081686;28;20702;-49
2022/03/31 01:08:43;;;;;;;;;;;;;;;18.06;57.84;96514.47;2083943;28;20549;-50
2022/03/31 01:09:45;;;;;;;0.85;0.50;;;;;;;18.14;57.50;96507.84;2081091;28;20379;-52
2022/03/31 01:10:50;;;;;;;1.02;0.93;;;;;;;18.22;57.27;96511.94;2083538;28;20053;-53
2022/03/31 01:11:52;;;;;;;0.95;0.85;;;;;;;18.22;57.30;96510.09;2081884;28;20049;-51
2022/03/31 01:12:52;;;;;;;0.50;0.50;;;;;;;18.26;57.07;96508.50;2082528;28;20069;-50
2022/03/31 01:13:55;;;;;;;;;;;;;;;18.13;57.40;96502.72;2081296;28;20148;-52
2022/03/31 01:15:08;;;;;;;0.60;0.60;;;;;;;18.17;57.40;96498.50;2084682;28;20023;-50
2022/03/31 01:16:08;;;;;;;0.90;0.60;;;;;;;18.20;57.18;96496.13;2079470;28;20121;-50
2022/03/31 01:17:10;;;;;;;;;;;;;;;18.10;57.57;96501.38;2085122;28;20136;-50
2022/03/31 01:18:11;;;;;;;1.02;0.95;;;;;;;18.14;57.42;96499.00;2083381;28;19928;-52
2022/03/31 01:19:13;;;;;;;;;;;;;;;18.05;57.58;96501.31;2082924;28;20048;-51
2022/03/31 01:20:15;;;;;;;1.60;0.93;;;;;;;18.13;57.42;96502.72;2079818;28;19929;-50
2022/03/31 01:21:17;;;;;;;1.20;0.77;;;;;;;18.16;57.27;96499.53;2078535;28;20661;-51
2022/03/31 01:22:18;;;;;;;0.82;0.65;;;;;;;18.21;57.18;96503.09;2080040;28;20053;-51
2022/03/31 01:23:21;;;;;;;;;;;;;;;18.09;57.59;96492.50;2083122;28;20087;-51
2022/03/31 01:24:22;;;;;;;0.82;0.60;;;;;;;18.14;57.63;96493.66;2081481;28;20393;-52
2022/03/31 01:25:24;;;;;;;;;;;;;;;18.05;57.72;96493.25;2082071;28;20116;-53
2022/03/31 01:26:25;;;;;;;1.23;0.90;;;;;;;18.10;57.59;96485.25;2083200;28;19936;-53
2022/03/31 01:27:27;;;;;;;;;;;;;;;18.02;57.51;96486.53;2082693;28;20075;-53
2022/03/31 01:28:28;;;;;;;2.35;1.38;;;;;;;18.09;57.53;96489.03;2083847;28;19948;-49
2022/03/31 01:29:29;;;;;;;;;;;;;;;18.02;57.75;96491.88;2084349;28;20623;-54
2022/03/31 01:30:30;;;;;;;1.20;0.60;;;;;;;18.10;57.43;96482.59;2078591;28;19975;-51
2022/03/31 01:31:32;;;;;;;;;;;;;;;18.01;57.46;96479.53;2080887;28;20041;-51
2022/03/31 01:32:33;;;;;;;0.73;0.73;;;;;;;18.08;57.49;96482.06;2083365;28;20015;-52
2022/03/31 01:33:35;;;;;;;;;;;;;;;18.00;57.82;96483.31;2079663;28;20053;-54
2022/03/31 01:34:36;;;;;;;0.90;0.43;;;;;;;18.07;57.49;96483.91;2083441;28;20029;-55
2022/03/31 01:35:38;;;;;;;;;;;;;;;17.99;57.66;96483.53;2080309;28;20568;-53
2022/03/31 01:36:39;;;;;;;0.85;0.40;;;;;;;18.05;57.57;96479.84;2081441;28;19929;-54
2022/03/31 01:37:41;;;;;;;;;;;;;;;17.98;57.73;96474.69;2082554;28;20660;-47
2022/03/31 01:38:43;;;;;;;0.63;0.30;;;;;;;18.05;57.58;96471.78;2076905;28;19924;-49
2022/03/31 01:39:45;;;;;;;0.40;0.40;;;;;;;18.09;57.45;96470.25;2073957;28;20049;-50
2022/03/31 01:40:46;;;;;;;1.55;0.70;;;;;;;18.15;57.12;96471.09;2080014;28;20044;-51
2022/03/31 01:41:48;;;;;;;0.55;0.43;;;;;;;18.15;57.24;96468.41;2079697;28;21218;-51
2022/03/31 01:42:49;;;;;;;0.65;0.60;;;;;;;18.16;57.13;96467.34;2078327;28;20506;-53
2022/03/31 01:43:51;;;;;;;;;;;;;;;18.03;57.60;96461.34;2079799;28;20053;-50
2022/03/31 01:44:52;;;;;;;0.80;0.80;;;;;;;18.08;57.23;96464.06;2081394;28;20477;-49
2022/03/31 01:45:54;;;;;;;;;;;;;;;17.99;57.40;96462.88;2079863;28;20132;-49
2022/03/31 01:46:56;;;;;;;1.05;0.60;;;;;;;18.05;57.41;96461.91;2082043;28;19929;-50
2022/03/31 01:47:58;;;;;;;0.80;0.77;;;;;;;18.06;57.25;96458.16;2080207;28;20421;-52
2022/03/31 01:48:59;;;;;;;0.70;0.60;;;;;;;18.09;57.32;96460.31;2081443;28;20510;-49
2022/03/31 01:50:01;;;;;;;;;;;;;;;17.98;57.35;96455.91;2082672;28;20102;-51
2022/03/31 01:51:04;;;;;;;1.35;0.77;;;;;;;18.05;57.37;96455.69;2078266;28;20422;-48
2022/03/31 01:52:09;;;;;;;1.33;0.85;;;;;;;18.09;57.29;96448.78;2075614;28;20109;-51
2022/03/31 01:53:10;;;;;;;1.27;0.73;;;;;;;18.09;57.18;96452.28;2079802;28;21052;-50
2022/03/31 01:54:13;;;;;;;;;;;;;;;18.00;57.35;96445.75;2082349;28;20063;-49
2022/03/31 01:55:14;;;;;;;0.50;0.40;;;;;;;18.04;57.25;96449.53;2079349;28;19932;-51
2022/03/31 01:56:16;;;;;;;;;;;;;;;17.96;57.48;96433.09;2083388;28;20224;-51
2022/03/31 01:57:17;;;;;;;;;;;;;;;17.91;57.71;96441.88;2079680;28;19936;-48
2022/03/31 01:58:19;;;;;;;0.50;0.50;;;;;;;17.98;57.37;96433.66;2081688;28;19952;-51
2022/03/31 01:59:20;;;;;;;0.85;0.60;;;;;;;18.04;57.17;96430.75;2081169;28;20048;-49
2022/03/31 02:00:21;;;;;;;;;;;;;;;17.95;57.46;96434.97;2079984;28;20669;-48
2022/03/31 02:01:22;;;;;;;;;;;;;;;17.89;57.80;96435.97;2078772;28;19951;-48
2022/03/31 02:02:24;;;;;;;0.40;0.40;;;;;;;17.94;57.59;96436.03;2074215;28;19955;-49
2022/03/31 02:03:25;;;;;;;0.52;0.50;;;;;;;18.01;57.32;96430.47;2077565;28;20053;-50
2022/03/31 02:04:27;;;;;;;0.47;0.47;;;;;;;18.03;57.39;96423.78;2078578;28;20041;-51
2022/03/31 02:05:28;;;;;;;0.40;0.30;;;;;;;18.05;57.12;96423.50;2081587;28;20056;-51
2022/03/31 02:06:30;;;;;;;;;;;;;;;17.95;57.65;96426.13;2083010;28;20446;-51
2022/03/31 02:07:32;;;;;;;1.33;0.77;;;;;;;17.97;57.37;96408.72;2080297;28;19921;-51
2022/03/31 02:08:34;;;;;;;1.35;0.75;;;;;;;18.02;57.28;96416.78;2081176;28;20045;-49
2022/03/31 02:09:37;;;;;;;0.68;0.55;;;;;;;18.05;57.20;96428.88;2082705;28;20041;-49
2022/03/31 02:10:39;;;;;;;0.70;0.50;;;;;;;18.05;57.14;96427.03;2071835;28;20056;-53
2022/03/31 02:11:40;;;;;;;0.75;0.75;;;;;;;18.08;57.08;96423.84;2074721;28;20650;-52
2022/03/31 02:12:43;;;;;;;0.40;0.40;;;;;;;18.08;56.87;96413.09;2079735;28;20554;-50
2022/03/31 02:13:44;;;;;;;0.73;0.50;;;;;;;18.07;57.06;96421.41;2081389;28;20052;-51
2022/03/31 02:14:45;;;;;;;;;;;;;;;17.96;57.33;96423.16;2084113;28;20554;-51
2022/03/31 02:15:46;;;;;;;;;;;;;;;17.89;57.53;96422.56;2081986;28;20660;-53
2022/03/31 02:16:48;;;;;;;0.93;0.93;;;;;;;17.96;57.37;96417.00;2076902;28;19931;-51
2022/03/31 02:17:50;;;;;;;1.13;0.60;;;;;;;18.01;57.10;96409.81;2078506;28;20535;-51
2022/03/31 02:18:51;;;;;;;0.68;0.20;;;;;;;18.04;57.07;96411.97;2080373;28;20057;-50
2022/03/31 02:19:52;;;;;;;0.68;0.60;;;;;;;18.05;56.95;96405.56;2075243;28;20075;-51
2022/03/31 02:20:54;;;;;;;;;;;;;;;17.96;57.41;96409.75;2082909;28;20057;-50
2022/03/31 02:21:55;;;;;;;;;;;;;;;17.88;57.41;96406.72;2083444;28;19929;-51
2022/03/31 02:22:56;;;;;;;1.95;0.52;;;;;;;17.94;57.54;96413.75;2073638;28;20126;-50
2022/03/31 02:23:57;;;;;;;0.52;0.45;;;;;;;17.98;57.38;96404.16;2078416;28;20049;-50
2022/03/31 02:25:01;;;;;;;;;;;;;;;17.90;57.39;96400.03;2081575;28;20048;-51
2022/03/31 02:26:03;;;;;;;1.58;0.60;;;;;;;17.95;57.25;96391.25;2082025;28;19982;-51
2022/03/31 02:27:04;;;;;;;1.48;0.55;;;;;;;17.99;57.23;96400.38;2080807;28;20136;-52
2022/03/31 02:28:10;;;;;;;0.60;0.45;;;;;;;17.99;57.09;96398.50;2079268;28;20130;-54
2022/03/31 02:29:12;;;;;;;1.13;0.57;;;;;;;18.02;57.20;96399.88;2079282;28;20056;-49
2022/03/31 02:30:14;;;;;;;0.55;0.50;;;;;;;18.01;57.21;96393.72;2077409;28;20415;-52
2022/03/31 02:31:16;;;;;;;1.27;0.47;;;;;;;18.02;57.04;96395.31;2081838;28;20079;-50
2022/03/31 02:32:17;;;;;;;0.70;0.57;;;;;;;18.02;57.02;96395.31;2079853;28;20119;-51
2022/03/31 02:33:18;;;;;;;;;;;;;;;17.95;57.07;96399.28;2082765;28;20094;-53
2022/03/31 02:34:19;;;;;;;;;;;;;;;17.88;57.31;96404.84;2082750;28;20557;-52
2022/03/31 02:35:21;;;;;;;0.50;0.50;;;;;;;17.91;57.55;96396.28;2079438;28;20011;-51
2022/03/31 02:36:22;;;;;;;0.38;0.38;;;;;;;17.97;57.14;96397.97;2084178;28;20053;-49
2022/03/31 02:37:23;;;;;;;;;;;;;;;17.87;57.41;96400.56;2081362;28;20068;-51
2022/03/31 02:38:25;;;;;;;;;;;;;;;17.79;57.57;96398.31;2079886;28;19928;-51
2022/03/31 02:39:28;;;;;;;1.50;0.40;;;;;;;17.87;57.55;96403.22;2081966;28;19928;-51
2022/03/31 02:40:31;;;;;;;1.05;0.70;;;;;;;17.94;57.32;96389.59;2078836;28;20112;-51
2022/03/31 02:41:32;;;;;;;0.25;0.25;;;;;;;17.98;57.10;96385.38;2081416;28;20052;-49
2022/03/31 02:42:35;;;;;;;;;;;;;;;17.87;57.40;96395.19;2077463;28;20128;-54
2022/03/31 02:43:36;;;;;;;1.30;0.68;;;;;;;17.91;57.26;96396.28;2075475;28;20273;-52
2022/03/31 02:44:37;;;;;;;;;;;;;;;17.81;57.67;96383.59;2077735;28;20073;-51
2022/03/31 02:45:38;;;;;;;;;;;;;;;17.77;57.67;96392.34;2077126;28;19924;-50
2022/03/31 02:46:40;;;;;;;0.68;0.50;;;;;;;17.84;57.58;96382.28;2077109;28;19921;-51
2022/03/31 02:47:44;;;;;;;0.40;0.32;;;;;;;17.89;57.40;96385.03;2080003;28;20049;-52
2022/03/31 02:48:46;;;;;;;0.30;0.30;;;;;;;17.93;57.24;96383.44;2080264;28;20049;-50
2022/03/31 02:49:47;;;;;;;0.40;0.35;;;;;;;17.94;57.17;96382.41;2078636;28;20139;-51
2022/03/31 02:50:49;;;;;;;;;;;;;;;17.84;57.22;96382.28;2080428;28;20052;-51
2022/03/31 02:51:49;;;;;;;0.30;0.30;;;;;;;17.91;57.22;96384.75;2079419;28;20401;-51
2022/03/31 02:55:31;;;;;;;0.77;0.60;;;;;;;17.91;57.42;96369.47;2079997;28;21074;-51
2022/03/31 02:56:32;;;;;;;0.60;0.60;;;;;;;17.93;57.31;96370.03;2080817;28;20131;-51
2022/03/31 02:57:34;;;;;;;;;;;;;;;17.84;57.44;96371.56;2080760;28;20148;-52
2022/03/31 02:58:36;;;;;;;1.13;0.50;;;;;;;17.88;57.49;96372.66;2081287;28;19932;-53
2022/03/31 02:59:38;;;;;;;0.50;0.50;;;;;;;17.91;57.43;96374.84;2081603;28;20056;-51
2022/03/31 03:00:40;;;;;;;1.85;0.40;;;;;;;17.91;57.48;96369.47;2080298;28;20110;-54
2022/03/31 03:01:42;;;;;;;0.93;0.93;;;;;;;17.93;57.14;96370.03;2082683;28;20077;-52
2022/03/31 03:02:46;;;;;;;0.63;0.50;;;;;;;17.94;57.11;96366.31;2081164;28;20056;-51
2022/03/31 03:03:48;;;;;;;0.73;0.47;;;;;;;17.96;57.04;96364.16;2078743;28;20056;-50
2022/03/31 03:04:51;;;;;;;0.55;0.50;;;;;;;17.95;57.10;96367.91;2079596;28;20052;-48
2022/03/31 03:05:52;;;;;;;0.55;0.30;;;;;;;17.95;57.09;96370.59;2080360;28;22352;-47
2022/03/31 03:06:54;;;;;;;0.68;0.68;;;;;;;17.97;57.12;96365.78;2079270;28;20055;-50
2022/03/31 03:07:55;;;;;;;0.60;0.40;;;;;;;17.97;57.02;96364.97;2081547;28;20049;-52
2022/03/31 03:08:57;;;;;;;;;;;;;;;17.85;57.16;96357.09;2081708;28;20048;-51
2022/03/31 03:09:58;;;;;;;0.75;0.40;;;;;;;17.89;57.19;96358.22;2076479;28;20489;-49
2022/03/31 03:11:01;;;;;;;;;;;;;;;17.78;57.60;96369.88;2080680;28;20052;-49
2022/03/31 03:12:03;;;;;;;0.57;0.50;;;;;;;17.85;57.31;96368.59;2083552;28;20390;-50
2022/03/31 03:13:05;;;;;;;0.63;0.32;;;;;;;17.92;57.29;96367.63;2085420;28;24854;-51
2022/03/31 03:14:06;;;;;;;0.32;0.32;;;;;;;17.93;57.33;96362.00;2083207;28;20049;-49
2022/03/31 03:15:08;;;;;;;;;;;;;;;17.83;57.25;96367.28;2078225;28;20080;-49
2022/03/31 03:16:09;;;;;;;0.85;0.38;;;;;;;17.88;57.34;96369.19;2074764;28;19931;-49
2022/03/31 03:17:11;;;;;;;;;;;;;;;17.77;57.43;96376.28;2083764;28;20430;-49
2022/03/31 03:18:12;;;;;;;2.80;0.63;;;;;;;17.84;57.48;96376.94;2083340;28;20279;-53
2022/03/31 03:19:13;;;;;;;;;;;;;;;17.76;57.58;96380.03;2083604;28;20049;-52
2022/03/31 03:20:15;;;;;;;0.30;0.30;;;;;;;17.82;57.50;96368.31;2084397;28;19921;-52
2022/03/31 03:21:17;;;;;;;0.40;0.35;;;;;;;17.85;57.22;96363.25;2084317;28;20126;-52
2022/03/31 03:22:18;;;;;;;0.45;0.45;;;;;;;17.89;57.15;96366.25;2081371;28;20684;-52
2022/03/31 03:23:19;;;;;;;;;;;;;;;17.76;57.42;96363.94;2085276;28;20142;-49
2022/03/31 03:24:22;;;;;;;0.22;0.22;;;;;;;17.83;57.28;96359.22;2081240;28;19960;-49
2022/03/31 03:25:24;;;;;;;0.60;0.30;;;;;;;17.85;57.36;96370.50;2077332;28;20132;-51
2022/03/31 03:26:27;;;;;;;0.60;0.60;;;;;;;17.88;57.21;96369.19;2082525;28;20053;-52
2022/03/31 03:27:28;;;;;;;0.40;0.40;;;;;;;17.90;57.20;96364.38;2084873;28;20056;-50
2022/03/31 03:28:29;;;;;;;0.30;0.30;;;;;;;17.88;57.19;96364.63;2084210;28;20447;-52
2022/03/31 03:29:32;;;;;;;0.20;0.20;;;;;;;17.89;57.14;96363.56;2082149;28;20603;-52
2022/03/31 03:30:33;;;;;;;0.75;0.30;;;;;;;17.91;57.04;96368.66;2082878;28;20052;-50
2022/03/31 03:31:34;;;;;;;;;;;;;;;17.78;57.30;96364.50;2083974;28;20110;-51
2022/03/31 03:32:36;;;;;;;0.60;0.38;;;;;;;17.81;57.65;96366.72;2085232;28;20015;-51
2022/03/31 03:33:38;;;;;;;0.50;0.50;;;;;;;17.82;57.33;96358.41;2082144;28;20151;-49
2022/03/31 03:34:39;;;;;;;0.95;0.40;;;;;;;17.85;57.07;96365.94;2077145;28;20052;-50
2022/03/31 03:35:41;;;;;;;;;;;;;;;17.76;57.36;96364.75;2082482;28;20076;-49
2022/03/31 03:36:43;;;;;;;0.55;0.55;;;;;;;17.82;57.38;96369.13;2082846;28;19920;-51
2022/03/31 03:37:44;;;;;;;0.40;0.30;;;;;;;17.84;57.23;96361.63;2085678;28;20045;-53
2022/03/31 03:38:46;;;;;;;;;;;;;;;17.74;57.37;96363.38;2085022;28;20083;-54
2022/03/31 03:39:47;;;;;;;0.88;0.30;;;;;;;17.80;57.31;96365.91;2083353;28;19920;-50
2022/03/31 03:40:48;;;;;;;;;;;;;;;17.73;57.36;96359.91;2085186;28;20906;-50
2022/03/31 03:41:50;;;;;;;0.40;0.40;;;;;;;17.78;57.25;96356.47;2080517;28;20055;-51
2022/03/31 03:42:53;;;;;;;0.65;0.65;;;;;;;17.84;57.21;96363.53;2085071;28;20106;-51
2022/03/31 03:43:54;;;;;;;0.77;0.57;;;;;;;17.85;57.17;96365.94;2082037;28;20108;-51
2022/03/31 03:44:56;;;;;;;;;;;;;;;17.74;57.46;96366.88;2078241;28;20048;-49
2022/03/31 03:45:56;;;;;;;;;;;;;;;17.68;57.60;96367.88;2082611;28;19928;-51
2022/03/31 03:46:58;;;;;;;0.45;0.35;;;;;;;17.71;57.46;96356.66;2078899;28;20362;-49
2022/03/31 03:47:59;;;;;;;0.60;0.52;;;;;;;17.76;57.24;96347.84;2081579;28;20068;-48
2022/03/31 03:49:00;;;;;;;;;;;;;;;17.67;57.47;96365.47;2080351;28;20430;-49
2022/03/31 03:50:01;;;;;;;;;;;;;;;17.62;57.67;96375.06;2076989;28;19921;-50
2022/03/31 03:51:04;;;;;;;0.20;0.20;;;;;;;17.72;57.51;96370.84;2079478;28;19928;-51
2022/03/31 03:52:05;;;;;;;0.47;0.40;;;;;;;17.77;57.40;96357.50;2081378;28;20064;-52
2022/03/31 03:53:07;;;;;;;0.20;0.20;;;;;;;17.81;57.31;96355.97;2084132;28;20592;-52
2022/03/31 03:54:08;;;;;;;0.60;0.55;;;;;;;17.82;57.26;96361.06;2076288;28;20046;-51
2022/03/31 03:55:10;;;;;;;;;;;;;;;17.73;57.41;96353.72;2068985;28;20053;-52
2022/03/31 03:56:11;;;;;;;0.47;0.40;;;;;;;17.76;57.19;96351.34;2074840;28;20011;-50
2022/03/31 03:57:14;;;;;;;;;;;;;;;17.68;57.48;96351.00;2080565;28;20048;-51
2022/03/31 03:58:15;;;;;;;0.55;0.43;;;;;;;17.72;57.33;96346.72;2084523;28;19928;-48
2022/03/31 03:59:16;;;;;;;;;;;;;;;17.66;57.50;96348.56;2084607;28;20148;-51
2022/03/31 04:00:18;;;;;;;;;;;;;;;17.62;57.68;96352.81;2082709;28;19920;-53
2022/03/31 04:01:20;;;;;;;0.55;0.30;;;;;;;17.70;57.54;96348.88;2079326;28;21237;-51
2022/03/31 04:02:21;;;;;;;3.83;0.43;;;;;;;17.74;57.22;96344.59;2084854;28;20043;-53
2022/03/31 04:03:22;;;;;;;;;;;;;;;17.65;57.50;96347.75;2085624;28;20041;-52
2022/03/31 04:04:23;;;;;;;0.60;0.40;;;;;;;17.71;57.47;96348.59;2078449;28;19921;-49
2022/03/31 04:05:24;;;;;;;;;;;;;;;17.64;57.69;96351.50;2073516;28;20091;-51
2022/03/31 04:06:25;;;;;;;0.65;0.40;;;;;;;17.71;57.50;96345.94;2075164;28;21484;-49
2022/03/31 04:07:27;;;;;;;;;;;;;;;17.70;57.52;96346.19;2080631;28;20051;-52
2022/03/31 04:08:28;;;;;;;;;;;;;;;17.67;57.78;96344.81;2085478;28;19967;-49
2022/03/31 04:09:30;;;;;;;0.20;0.20;;;;;;;17.76;57.36;96339.81;2083196;28;19928;-50
2022/03/31 04:10:33;;;;;;;1.15;0.63;;;;;;;17.86;57.16;96342.63;2080349;28;20052;-49
2022/03/31 04:11:35;;;;;;;0.80;0.30;;;;;;;17.94;56.93;96344.00;2077315;28;20063;-48
2022/03/31 04:12:39;;;;;;;0.52;0.50;;;;;;;17.96;56.86;96348.06;2080824;28;20041;-50
2022/03/31 04:13:42;;;;;;;0.20;0.20;;;;;;;18.02;56.84;96349.72;2072666;28;20053;-50
2022/03/31 04:14:43;;;;;;;0.60;0.22;;;;;;;18.08;56.34;96338.00;2077127;28;20989;-50
2022/03/31 04:15:44;;;;;;;;;;;;;;;18.02;56.69;96340.88;2082255;28;20044;-52
2022/03/31 04:16:45;;;;;;;2.13;0.40;;;;;;;18.03;56.80;96337.16;2084862;28;20007;-49
2022/03/31 04:17:47;;;;;;;0.20;0.20;;;;;;;18.08;56.78;96337.19;2080553;28;20060;-52
2022/03/31 04:18:48;;;;;;;1.75;0.52;;;;;;;18.11;56.67;96327.78;2075752;28;20172;-51
2022/03/31 04:19:50;;;;;;;;;;;;;;;18.04;56.80;96323.47;2073753;28;20124;-49
2022/03/31 04:20:50;;;;;;;0.75;0.65;;;;;;;18.06;56.84;96313.28;2080825;28;19973;-53
2022/03/31 04:21:52;;;;;;;;;;;;;;;18.04;57.01;96322.66;2080798;28;21389;-51
2022/03/31 04:22:53;;;;;;;0.52;0.30;;;;;;;18.09;56.80;96320.81;2081305;28;19952;-50
2022/03/31 04:23:54;;;;;;;;;;;;;;;18.05;57.24;96319.72;2082380;28;20052;-50
2022/03/31 04:24:55;;;;;;;1.02;0.57;;;;;;;18.12;56.83;96324.06;2082385;28;20902;-50
2022/03/31 04:25:57;;;;;;;;;;;;;;;18.07;57.02;96322.94;2081714;28;20064;-51
2022/03/31 04:26:58;;;;;;;0.60;0.25;;;;;;;18.16;56.85;96325.97;2084540;28;20383;-51
2022/03/31 04:28:01;;;;;;;;;;;;;;;18.13;56.91;96314.94;2080445;28;20049;-50
2022/03/31 04:29:01;;;;;;;0.50;0.40;;;;;;;18.19;56.90;96317.44;2077077;28;19982;-49
2022/03/31 04:30:03;;;;;;;;;;;;;;;18.15;57.00;96308.25;2081978;28;20053;-50
2022/03/31 04:31:04;;;;;;;0.75;0.20;;;;;;;18.22;56.73;96313.41;2082128;28;19927;-51
2022/03/31 04:32:06;;;;;;;;;;;;;;;18.17;56.78;96321.44;2078680;28;20202;-49
2022/03/31 04:33:07;;;;;;;6.32;0.50;;;;;;;18.24;56.86;96322.00;2081317;28;19921;-50
2022/03/31 04:34:09;;;;;;;0.25;0.25;;;;;;;18.29;56.65;96314.00;2078122;28;20053;-49
2022/03/31 04:35:11;;;;;;;1.38;0.30;;;;;;;18.33;56.54;96304.38;2079386;28;20049;-49
2022/03/31 04:36:12;;;;;;;0.65;0.50;;;;;;;18.36;56.55;96303.84;2082005;28;20148;-50
2022/03/31 04:37:14;;;;;;;;;;;;;;;18.29;56.80;96309.44;2082689;28;20091;-49
2022/03/31 04:38:15;;;;;;;0.40;0.30;;;;;;;18.33;56.69;96314.28;2081118;28;20483;-50
2022/03/31 04:39:17;;;;;;;;;;;;;;;18.27;56.55;96316.91;2082419;28;20118;-52
2022/03/31 04:40:19;;;;;;;0.65;0.40;;;;;;;18.35;56.53;96310.28;2082842;28;20393;-50
2022/03/31 04:41:20;;;;;;;0.35;0.30;;;;;;;18.38;56.62;96314.31;2081989;28;20056;-50
2022/03/31 04:42:22;;;;;;;;;;;;;;;18.32;56.52;96310.78;2085695;28;20697;-49
2022/03/31 04:43:24;;;;;;;;;;;;;;;18.27;56.84;96313.44;2081859;28;20019;-50
2022/03/31 04:44:25;;;;;;;0.35;0.30;;;;;;;18.36;56.69;96316.44;2078803;28;19928;-51
2022/03/31 04:45:27;;;;;;;;;;;;;;;18.33;56.68;96320.47;2076950;28;20109;-49
2022/03/31 04:46:28;;;;;;;;;;;;;;;18.29;56.92;96316.69;2084833;28;20341;-50
2022/03/31 04:47:30;;;;;;;1.10;0.30;;;;;;;18.36;56.59;96316.44;2082682;28;19952;-51
2022/03/31 04:48:32;;;;;;;0.30;0.20;;;;;;;18.41;56.61;96316.47;2076044;28;20364;-50
2022/03/31 04:49:34;;;;;;;0.68;0.40;;;;;;;18.43;56.19;96314.34;2076170;28;20057;-50
2022/03/31 04:50:35;;;;;;;0.25;0.25;;;;;;;18.47;56.10;96310.91;2084497;28;20048;-49
2022/03/31 04:51:37;;;;;;;;;;;;;;;18.40;56.28;96325.63;2083629;28;20538;-48
2022/03/31 04:52:38;;;;;;;0.35;0.35;;;;;;;18.43;56.31;96317.84;2081525;28;19967;-49
2022/03/31 04:53:39;;;;;;;;;;;;;;;18.40;56.65;96318.38;2084585;28;20045;-48
2022/03/31 04:54:43;;;;;;;;;;;;;;;18.35;56.84;96323.69;2083021;28;19925;-48
2022/03/31 04:55:45;;;;;;;0.40;0.40;;;;;;;18.40;56.74;96320.25;2081998;28;19968;-50
2022/03/31 04:56:47;;;;;;;0.30;0.20;;;;;;;18.47;56.52;96326.19;2082413;28;20400;-49
2022/03/31 04:57:49;;;;;;;0.28;0.25;;;;;;;18.48;56.39;96317.88;2080130;28;20059;-51
2022/03/31 04:58:52;;;;;;;0.20;0.20;;;;;;;18.54;56.29;96313.34;2082170;28;20580;-52
2022/03/31 04:59:53;;;;;;;0.47;0.32;;;;;;;18.56;56.08;96307.75;2081819;28;20048;-51
2022/03/31 05:00:55;;;;;;;;;;;;;;;18.46;56.47;96303.91;2076217;28;20141;-51
2022/03/31 05:01:55;;;;;;;;;;;;;;;18.42;56.64;96307.38;2079818;28;19925;-52